sensor_id;sensor_type;location;lat;lon;timestamp;P1;durP1;ratioP1;P2;durP2;ratioP2
38037;SDS011;23843;51.320;12.340;2022-12-07T05:32:15;2.63;;;2.07;;
38037;SDS011;23843;51.320;12.340;2022-12-07T05:34:40;2.27;;;1.80;;
38037;SDS011;23843;51.320;12.340;2022-12-07T05:37:05;2.27;;;1.53;;
38037;SDS011;23843;51.320;12.340;2022-12-07T05:39:31;3.23;;;2.10;;
38037;SDS011;23843;51.320;12.340;2022-12-07T05:41:56;3.47;;;2.50;;
38037;SDS011;23843;51.320;12.340;2022-12-07T05:44:22;3.20;;;2.37;;
38037;SDS011;23843;51.320;12.340;2022-12-07T05:46:47;2.90;;;2.10;;
38037;SDS011;23843;51.320;12.340;2022-12-07T05:49:14;3.33;;;2.30;;
38037;SDS011;23843;51.320;12.340;2022-12-07T05:51:40;3.93;;;2.90;;
38037;SDS011;23843;51.320;12.340;2022-12-07T05:54:05;3.67;;;2.70;;
38037;SDS011;23843;51.320;12.340;2022-12-07T05:56:30;3.37;;;2.60;;
38037;SDS011;23843;51.320;12.340;2022-12-07T05:58:56;3.50;;;2.20;;
38037;SDS011;23843;51.320;12.340;2022-12-07T06:01:21;4.03;;;2.90;;
38037;SDS011;23843;51.320;12.340;2022-12-07T06:03:47;3.53;;;2.50;;
38037;SDS011;23843;51.320;12.340;2022-12-07T06:06:14;3.93;;;2.90;;
38037;SDS011;23843;51.320;12.340;2022-12-07T06:08:39;3.27;;;2.60;;
38037;SDS011;23843;51.320;12.340;2022-12-07T06:11:04;2.87;;;2.20;;
38037;SDS011;23843;51.320;12.340;2022-12-07T06:13:30;3.60;;;2.60;;
38037;SDS011;23843;51.320;12.340;2022-12-07T06:15:55;3.23;;;2.60;;
38037;SDS011;23843;51.320;12.340;2022-12-07T06:18:21;2.70;;;2.20;;
38037;SDS011;23843;51.320;12.340;2022-12-07T06:20:46;4.67;;;3.53;;
38037;SDS011;23843;51.320;12.340;2022-12-07T06:23:13;5.00;;;3.50;;
38037;SDS011;23843;51.320;12.340;2022-12-07T06:25:38;3.80;;;2.93;;
38037;SDS011;23843;51.320;12.340;2022-12-07T06:28:04;2.90;;;2.20;;
38037;SDS011;23843;51.320;12.340;2022-12-07T06:30:29;3.63;;;2.47;;
38037;SDS011;23843;51.320;12.340;2022-12-07T06:32:54;3.10;;;2.30;;
38037;SDS011;23843;51.320;12.340;2022-12-07T06:35:20;2.87;;;2.20;;
38037;SDS011;23843;51.320;12.340;2022-12-07T06:37:45;3.60;;;2.60;;
38037;SDS011;23843;51.320;12.340;2022-12-07T06:40:12;4.40;;;2.77;;
38037;SDS011;23843;51.320;12.340;2022-12-07T06:42:38;4.43;;;3.00;;
38037;SDS011;23843;51.320;12.340;2022-12-07T06:45:03;5.03;;;3.13;;
38037;SDS011;23843;51.320;12.340;2022-12-07T06:47:29;4.80;;;3.13;;
38037;SDS011;23843;51.320;12.340;2022-12-07T06:49:55;4.87;;;3.17;;
38037;SDS011;23843;51.320;12.340;2022-12-07T06:52:20;3.80;;;3.03;;
38037;SDS011;23843;51.320;12.340;2022-12-07T06:54:45;3.30;;;2.53;;
38037;SDS011;23843;51.320;12.340;2022-12-07T06:57:12;4.07;;;2.73;;
38037;SDS011;23843;51.320;12.340;2022-12-07T06:59:38;3.90;;;3.10;;
38037;SDS011;23843;51.320;12.340;2022-12-07T07:02:03;5.63;;;3.73;;
38037;SDS011;23843;51.320;12.340;2022-12-07T07:04:28;4.73;;;3.20;;
38037;SDS011;23843;51.320;12.340;2022-12-07T07:06:54;4.83;;;3.20;;
38037;SDS011;23843;51.320;12.340;2022-12-07T07:09:19;3.53;;;2.60;;
38037;SDS011;23843;51.320;12.340;2022-12-07T07:11:45;3.00;;;2.20;;
38037;SDS011;23843;51.320;12.340;2022-12-07T07:14:11;4.53;;;3.20;;
38037;SDS011;23843;51.320;12.340;2022-12-07T07:16:37;3.80;;;2.73;;
38037;SDS011;23843;51.320;12.340;2022-12-07T07:19:02;4.23;;;3.03;;
38037;SDS011;23843;51.320;12.340;2022-12-07T07:21:28;3.63;;;2.40;;
38037;SDS011;23843;51.320;12.340;2022-12-07T07:23:53;3.33;;;2.40;;
38037;SDS011;23843;51.320;12.340;2022-12-07T07:26:19;2.23;;;1.70;;
38037;SDS011;23843;51.320;12.340;2022-12-07T07:28:44;3.00;;;2.20;;
38037;SDS011;23843;51.320;12.340;2022-12-07T07:31:11;4.03;;;2.73;;
38037;SDS011;23843;51.320;12.340;2022-12-07T07:33:36;3.50;;;2.57;;
38037;SDS011;23843;51.320;12.340;2022-12-07T07:36:02;3.73;;;2.70;;
38037;SDS011;23843;51.320;12.340;2022-12-07T07:38:27;3.00;;;2.10;;
38037;SDS011;23843;51.320;12.340;2022-12-07T07:40:53;3.23;;;2.47;;
38037;SDS011;23843;51.320;12.340;2022-12-07T07:43:18;3.67;;;2.60;;
38037;SDS011;23843;51.320;12.340;2022-12-07T07:45:44;3.30;;;2.47;;
38037;SDS011;23843;51.320;12.340;2022-12-07T07:48:10;3.10;;;2.27;;
38037;SDS011;23843;51.320;12.340;2022-12-07T07:50:36;3.10;;;2.10;;
38037;SDS011;23843;51.320;12.340;2022-12-07T07:53:01;3.00;;;2.23;;
38037;SDS011;23843;51.320;12.340;2022-12-07T07:55:27;3.20;;;2.33;;
38037;SDS011;23843;51.320;12.340;2022-12-07T07:57:53;3.17;;;2.40;;
38037;SDS011;23843;51.320;12.340;2022-12-07T08:00:19;3.53;;;2.70;;
38037;SDS011;23843;51.320;12.340;2022-12-07T08:02:45;2.83;;;2.33;;
38037;SDS011;23843;51.320;12.340;2022-12-07T08:05:12;3.83;;;2.87;;
38037;SDS011;23843;51.320;12.340;2022-12-07T08:07:37;5.70;;;3.50;;
38037;SDS011;23843;51.320;12.340;2022-12-07T08:10:03;4.00;;;2.90;;
38037;SDS011;23843;51.320;12.340;2022-12-07T08:12:30;3.50;;;2.80;;
38037;SDS011;23843;51.320;12.340;2022-12-07T08:14:55;3.60;;;2.83;;
38037;SDS011;23843;51.320;12.340;2022-12-07T08:17:20;2.57;;;2.00;;
38037;SDS011;23843;51.320;12.340;2022-12-07T08:19:46;2.80;;;2.23;;
38037;SDS011;23843;51.320;12.340;2022-12-07T08:22:13;2.83;;;2.27;;
38037;SDS011;23843;51.320;12.340;2022-12-07T08:24:38;4.40;;;2.80;;
38037;SDS011;23843;51.320;12.340;2022-12-07T08:27:04;4.00;;;3.20;;
38037;SDS011;23843;51.320;12.340;2022-12-07T08:29:29;3.67;;;2.93;;
38037;SDS011;23843;51.320;12.340;2022-12-07T08:31:55;3.23;;;2.60;;
38037;SDS011;23843;51.320;12.340;2022-12-07T08:34:20;4.27;;;2.70;;
38037;SDS011;23843;51.320;12.340;2022-12-07T08:36:45;4.77;;;3.37;;
38037;SDS011;23843;51.320;12.340;2022-12-07T08:39:12;3.83;;;2.67;;
38037;SDS011;23843;51.320;12.340;2022-12-07T08:41:38;4.53;;;3.10;;
38037;SDS011;23843;51.320;12.340;2022-12-07T08:44:03;4.27;;;2.87;;
38037;SDS011;23843;51.320;12.340;2022-12-07T08:46:30;3.33;;;2.30;;
38037;SDS011;23843;51.320;12.340;2022-12-07T08:49:02;3.10;;;2.20;;
38037;SDS011;23843;51.320;12.340;2022-12-07T08:51:30;3.23;;;2.20;;
38037;SDS011;23843;51.320;12.340;2022-12-07T08:53:56;3.87;;;2.50;;
38037;SDS011;23843;51.320;12.340;2022-12-07T08:56:27;3.57;;;2.50;;
38037;SDS011;23843;51.320;12.340;2022-12-07T08:58:53;3.70;;;2.73;;
38037;SDS011;23843;51.320;12.340;2022-12-07T09:01:18;3.37;;;2.70;;
38037;SDS011;23843;51.320;12.340;2022-12-07T09:03:44;2.63;;;1.90;;
38037;SDS011;23843;51.320;12.340;2022-12-07T09:06:09;3.40;;;2.10;;
38037;SDS011;23843;51.320;12.340;2022-12-07T09:08:36;3.47;;;2.00;;
38037;SDS011;23843;51.320;12.340;2022-12-07T09:11:05;3.00;;;2.20;;
38037;SDS011;23843;51.320;12.340;2022-12-07T09:13:31;2.63;;;2.00;;
38037;SDS011;23843;51.320;12.340;2022-12-07T09:15:57;3.10;;;2.33;;
38037;SDS011;23843;51.320;12.340;2022-12-07T09:18:22;2.90;;;2.40;;
38037;SDS011;23843;51.320;12.340;2022-12-07T09:20:48;2.67;;;2.00;;
38037;SDS011;23843;51.320;12.340;2022-12-07T09:23:13;2.63;;;1.97;;
38037;SDS011;23843;51.320;12.340;2022-12-07T09:25:39;2.77;;;2.10;;
38037;SDS011;23843;51.320;12.340;2022-12-07T09:28:04;3.30;;;2.50;;
38037;SDS011;23843;51.320;12.340;2022-12-07T09:30:31;3.27;;;2.57;;
38037;SDS011;23843;51.320;12.340;2022-12-07T09:32:56;3.43;;;2.60;;
38037;SDS011;23843;51.320;12.340;2022-12-07T09:35:22;3.23;;;2.20;;
38037;SDS011;23843;51.320;12.340;2022-12-07T09:37:48;2.83;;;2.23;;
38037;SDS011;23843;51.320;12.340;2022-12-07T09:40:14;3.20;;;2.33;;
38037;SDS011;23843;51.320;12.340;2022-12-07T09:42:41;4.37;;;2.90;;
38037;SDS011;23843;51.320;12.340;2022-12-07T09:45:11;5.70;;;3.60;;
38037;SDS011;23843;51.320;12.340;2022-12-07T09:47:43;4.40;;;2.80;;
38037;SDS011;23843;51.320;12.340;2022-12-07T09:50:12;3.53;;;2.80;;
38037;SDS011;23843;51.320;12.340;2022-12-07T09:52:38;4.13;;;3.07;;
38037;SDS011;23843;51.320;12.340;2022-12-07T09:55:08;3.93;;;2.63;;
38037;SDS011;23843;51.320;12.340;2022-12-07T09:57:36;2.70;;;2.20;;
38037;SDS011;23843;51.320;12.340;2022-12-07T10:00:03;2.73;;;2.13;;
38037;SDS011;23843;51.320;12.340;2022-12-07T10:02:35;3.83;;;2.60;;
38037;SDS011;23843;51.320;12.340;2022-12-07T10:05:04;3.73;;;2.70;;
38037;SDS011;23843;51.320;12.340;2022-12-07T10:07:31;2.27;;;1.70;;
38037;SDS011;23843;51.320;12.340;2022-12-07T10:09:56;2.20;;;1.67;;
38037;SDS011;23843;51.320;12.340;2022-12-07T10:12:22;3.07;;;1.80;;
38037;SDS011;23843;51.320;12.340;2022-12-07T10:14:54;3.23;;;2.37;;
38037;SDS011;23843;51.320;12.340;2022-12-07T10:17:29;4.67;;;3.10;;
38037;SDS011;23843;51.320;12.340;2022-12-07T10:20:11;3.70;;;2.70;;
38037;SDS011;23843;51.320;12.340;2022-12-07T10:22:41;2.87;;;2.13;;
38037;SDS011;23843;51.320;12.340;2022-12-07T10:25:20;3.27;;;1.77;;
38037;SDS011;23843;51.320;12.340;2022-12-07T10:27:56;2.90;;;2.17;;
38037;SDS011;23843;51.320;12.340;2022-12-07T10:30:23;4.50;;;3.10;;
38037;SDS011;23843;51.320;12.340;2022-12-07T10:32:49;3.40;;;2.63;;
38037;SDS011;23843;51.320;12.340;2022-12-07T10:35:23;3.43;;;2.40;;
38037;SDS011;23843;51.320;12.340;2022-12-07T10:37:50;2.27;;;1.80;;
38037;SDS011;23843;51.320;12.340;2022-12-07T10:40:24;2.50;;;2.00;;
38037;SDS011;23843;51.320;12.340;2022-12-07T10:43:00;1.57;;;1.37;;
38037;SDS011;23843;51.320;12.340;2022-12-07T10:45:26;1.93;;;1.53;;
38037;SDS011;23843;51.320;12.340;2022-12-07T10:47:53;2.47;;;1.70;;
38037;SDS011;23843;51.320;12.340;2022-12-07T10:53:27;3.27;;;2.27;;
38037;SDS011;23843;51.320;12.340;2022-12-07T10:56:14;3.03;;;2.10;;
38037;SDS011;23843;51.320;12.340;2022-12-07T10:59:02;3.07;;;2.30;;
38037;SDS011;23843;51.320;12.340;2022-12-07T11:01:43;5.10;;;3.20;;
38037;SDS011;23843;51.320;12.340;2022-12-07T11:04:16;3.93;;;2.97;;
38037;SDS011;23843;51.320;12.340;2022-12-07T11:06:48;3.23;;;2.47;;
38037;SDS011;23843;51.320;12.340;2022-12-07T11:12:19;2.80;;;2.30;;
38037;SDS011;23843;51.320;12.340;2022-12-07T11:14:53;2.23;;;1.60;;
38037;SDS011;23843;51.320;12.340;2022-12-07T11:17:24;2.87;;;1.60;;
38037;SDS011;23843;51.320;12.340;2022-12-07T11:20:00;2.10;;;1.40;;
38037;SDS011;23843;51.320;12.340;2022-12-07T11:22:35;1.53;;;1.30;;
38037;SDS011;23843;51.320;12.340;2022-12-07T11:25:13;1.90;;;1.47;;
38037;SDS011;23843;51.320;12.340;2022-12-07T11:27:47;2.00;;;1.67;;
38037;SDS011;23843;51.320;12.340;2022-12-07T11:30:22;2.90;;;1.90;;
38037;SDS011;23843;51.320;12.340;2022-12-07T11:32:55;1.73;;;1.40;;
38037;SDS011;23843;51.320;12.340;2022-12-07T11:35:30;2.53;;;1.40;;
38037;SDS011;23843;51.320;12.340;2022-12-07T11:38:09;2.67;;;1.83;;
38037;SDS011;23843;51.320;12.340;2022-12-07T11:40:39;4.43;;;2.40;;
38037;SDS011;23843;51.320;12.340;2022-12-07T11:43:11;3.60;;;2.20;;
38037;SDS011;23843;51.320;12.340;2022-12-07T11:45:43;2.30;;;1.70;;
38037;SDS011;23843;51.320;12.340;2022-12-07T11:48:14;2.87;;;1.57;;
38037;SDS011;23843;51.320;12.340;2022-12-07T11:50:44;1.63;;;1.30;;
38037;SDS011;23843;51.320;12.340;2022-12-07T11:53:17;2.83;;;1.90;;
38037;SDS011;23843;51.320;12.340;2022-12-07T11:55:49;1.40;;;1.23;;
38037;SDS011;23843;51.320;12.340;2022-12-07T11:58:23;1.90;;;1.20;;
38037;SDS011;23843;51.320;12.340;2022-12-07T12:01:08;2.70;;;1.80;;
38037;SDS011;23843;51.320;12.340;2022-12-07T12:03:40;2.67;;;1.60;;
38037;SDS011;23843;51.320;12.340;2022-12-07T12:06:08;3.37;;;2.00;;
38037;SDS011;23843;51.320;12.340;2022-12-07T12:08:36;1.37;;;1.17;;
38037;SDS011;23843;51.320;12.340;2022-12-07T12:11:10;1.37;;;1.20;;
38037;SDS011;23843;51.320;12.340;2022-12-07T12:13:58;1.80;;;1.17;;
38037;SDS011;23843;51.320;12.340;2022-12-07T12:16:48;1.17;;;0.97;;
38037;SDS011;23843;51.320;12.340;2022-12-07T12:19:40;1.10;;;0.90;;
38037;SDS011;23843;51.320;12.340;2022-12-07T12:22:10;1.30;;;0.90;;
38037;SDS011;23843;51.320;12.340;2022-12-07T12:24:40;1.47;;;1.20;;
38037;SDS011;23843;51.320;12.340;2022-12-07T12:27:08;1.50;;;1.27;;
38037;SDS011;23843;51.320;12.340;2022-12-07T12:29:43;1.37;;;1.00;;
38037;SDS011;23843;51.320;12.340;2022-12-07T12:32:13;1.10;;;0.83;;
38037;SDS011;23843;51.320;12.340;2022-12-07T12:34:57;0.80;;;0.70;;
38037;SDS011;23843;51.320;12.340;2022-12-07T12:37:44;1.77;;;0.97;;
38037;SDS011;23843;51.320;12.340;2022-12-07T12:55:26;1.50;;;1.00;;
38037;SDS011;23843;51.320;12.340;2022-12-07T12:58:32;1.20;;;1.00;;
38037;SDS011;23843;51.320;12.340;2022-12-07T13:04:31;1.07;;;0.80;;
38037;SDS011;23843;51.320;12.340;2022-12-07T13:10:25;2.47;;;1.10;;
38037;SDS011;23843;51.320;12.340;2022-12-07T13:13:01;3.70;;;1.40;;
38037;SDS011;23843;51.320;12.340;2022-12-07T13:15:34;2.00;;;1.40;;
38037;SDS011;23843;51.320;12.340;2022-12-07T13:18:02;4.30;;;1.70;;
38037;SDS011;23843;51.320;12.340;2022-12-07T13:20:47;2.83;;;1.90;;
38037;SDS011;23843;51.320;12.340;2022-12-07T13:23:24;3.80;;;1.87;;
38037;SDS011;23843;51.320;12.340;2022-12-07T13:26:09;1.70;;;1.03;;
38037;SDS011;23843;51.320;12.340;2022-12-07T13:28:40;1.70;;;1.10;;
38037;SDS011;23843;51.320;12.340;2022-12-07T13:33:59;2.67;;;1.50;;
38037;SDS011;23843;51.320;12.340;2022-12-07T13:36:26;1.83;;;1.33;;
38037;SDS011;23843;51.320;12.340;2022-12-07T13:38:54;2.60;;;1.67;;
38037;SDS011;23843;51.320;12.340;2022-12-07T13:41:21;1.87;;;1.40;;
38037;SDS011;23843;51.320;12.340;2022-12-07T13:43:50;1.80;;;1.30;;
38037;SDS011;23843;51.320;12.340;2022-12-07T13:46:18;1.83;;;1.43;;
38037;SDS011;23843;51.320;12.340;2022-12-07T13:48:49;1.87;;;1.10;;
38037;SDS011;23843;51.320;12.340;2022-12-07T13:51:20;1.70;;;1.10;;
38037;SDS011;23843;51.320;12.340;2022-12-07T13:53:48;2.30;;;1.07;;
38037;SDS011;23843;51.320;12.340;2022-12-07T13:56:14;2.47;;;1.20;;
38037;SDS011;23843;51.320;12.340;2022-12-07T13:58:40;1.87;;;1.10;;
38037;SDS011;23843;51.320;12.340;2022-12-07T14:01:06;1.33;;;1.17;;
38037;SDS011;23843;51.320;12.340;2022-12-07T14:03:32;1.63;;;1.20;;
38037;SDS011;23843;51.320;12.340;2022-12-07T14:06:22;1.23;;;1.00;;
38037;SDS011;23843;51.320;12.340;2022-12-07T14:08:49;1.27;;;0.80;;
38037;SDS011;23843;51.320;12.340;2022-12-07T14:11:16;1.70;;;1.13;;
38037;SDS011;23843;51.320;12.340;2022-12-07T14:13:44;1.17;;;1.00;;
38037;SDS011;23843;51.320;12.340;2022-12-07T14:16:22;3.30;;;2.00;;
38037;SDS011;23843;51.320;12.340;2022-12-07T14:18:50;1.47;;;1.23;;
38037;SDS011;23843;51.320;12.340;2022-12-07T14:21:17;2.97;;;1.30;;
38037;SDS011;23843;51.320;12.340;2022-12-07T14:23:44;2.17;;;1.40;;
38037;SDS011;23843;51.320;12.340;2022-12-07T14:26:11;1.57;;;1.00;;
38037;SDS011;23843;51.320;12.340;2022-12-07T14:28:37;1.60;;;1.10;;
38037;SDS011;23843;51.320;12.340;2022-12-07T14:31:03;0.97;;;0.80;;
38037;SDS011;23843;51.320;12.340;2022-12-07T14:33:36;1.10;;;1.00;;
38037;SDS011;23843;51.320;12.340;2022-12-07T14:36:02;1.30;;;1.07;;
38037;SDS011;23843;51.320;12.340;2022-12-07T14:38:29;1.23;;;1.00;;
38037;SDS011;23843;51.320;12.340;2022-12-07T14:40:54;1.20;;;1.00;;
38037;SDS011;23843;51.320;12.340;2022-12-07T14:43:21;3.23;;;1.27;;
38037;SDS011;23843;51.320;12.340;2022-12-07T14:45:46;1.10;;;1.00;;
38037;SDS011;23843;51.320;12.340;2022-12-07T14:48:12;2.87;;;1.40;;
38037;SDS011;23843;51.320;12.340;2022-12-07T14:50:40;1.77;;;1.20;;
38037;SDS011;23843;51.320;12.340;2022-12-07T14:53:09;1.77;;;1.40;;
38037;SDS011;23843;51.320;12.340;2022-12-07T14:55:40;2.93;;;1.43;;
38037;SDS011;23843;51.320;12.340;2022-12-07T14:58:05;1.40;;;1.00;;
38037;SDS011;23843;51.320;12.340;2022-12-07T15:00:31;1.00;;;0.87;;
38037;SDS011;23843;51.320;12.340;2022-12-07T15:02:57;0.87;;;0.70;;
38037;SDS011;23843;51.320;12.340;2022-12-07T15:05:22;1.20;;;0.70;;
38037;SDS011;23843;51.320;12.340;2022-12-07T15:07:50;2.10;;;0.90;;
38037;SDS011;23843;51.320;12.340;2022-12-07T15:10:16;0.97;;;0.80;;
38037;SDS011;23843;51.320;12.340;2022-12-07T15:12:44;1.23;;;1.00;;
38037;SDS011;23843;51.320;12.340;2022-12-07T15:15:10;1.00;;;0.73;;
38037;SDS011;23843;51.320;12.340;2022-12-07T15:17:35;1.03;;;0.80;;
38037;SDS011;23843;51.320;12.340;2022-12-07T15:20:01;1.07;;;0.80;;
38037;SDS011;23843;51.320;12.340;2022-12-07T15:22:26;1.13;;;0.77;;
38037;SDS011;23843;51.320;12.340;2022-12-07T15:24:52;0.90;;;0.70;;
38037;SDS011;23843;51.320;12.340;2022-12-07T15:27:17;0.50;;;0.50;;
38037;SDS011;23843;51.320;12.340;2022-12-07T15:29:44;0.80;;;0.70;;
38037;SDS011;23843;51.320;12.340;2022-12-07T15:32:09;1.20;;;0.80;;
38037;SDS011;23843;51.320;12.340;2022-12-07T15:34:35;1.50;;;1.00;;
38037;SDS011;23843;51.320;12.340;2022-12-07T15:37:00;0.97;;;0.77;;
38037;SDS011;23843;51.320;12.340;2022-12-07T15:39:26;2.00;;;0.90;;
38037;SDS011;23843;51.320;12.340;2022-12-07T15:41:51;1.03;;;0.90;;
38037;SDS011;23843;51.320;12.340;2022-12-07T15:44:17;1.23;;;0.60;;
38037;SDS011;23843;51.320;12.340;2022-12-07T15:46:43;0.80;;;0.60;;
38037;SDS011;23843;51.320;12.340;2022-12-07T15:49:10;0.60;;;0.50;;
38037;SDS011;23843;51.320;12.340;2022-12-07T15:51:38;1.17;;;0.57;;
38037;SDS011;23843;51.320;12.340;2022-12-07T15:54:04;0.50;;;0.50;;
38037;SDS011;23843;51.320;12.340;2022-12-07T15:56:29;2.23;;;0.70;;
38037;SDS011;23843;51.320;12.340;2022-12-07T15:58:55;0.83;;;0.60;;
38037;SDS011;23843;51.320;12.340;2022-12-07T16:01:21;0.83;;;0.70;;
38037;SDS011;23843;51.320;12.340;2022-12-07T16:03:48;0.70;;;0.50;;
38037;SDS011;23843;51.320;12.340;2022-12-07T16:06:15;1.90;;;0.80;;
38037;SDS011;23843;51.320;12.340;2022-12-07T16:08:41;1.07;;;0.70;;
38037;SDS011;23843;51.320;12.340;2022-12-07T16:11:07;1.27;;;0.70;;
38037;SDS011;23843;51.320;12.340;2022-12-07T16:13:32;0.97;;;0.60;;
38037;SDS011;23843;51.320;12.340;2022-12-07T16:15:58;1.03;;;0.67;;
38037;SDS011;23843;51.320;12.340;2022-12-07T16:18:27;1.23;;;0.40;;
38037;SDS011;23843;51.320;12.340;2022-12-07T16:20:54;0.77;;;0.50;;
38037;SDS011;23843;51.320;12.340;2022-12-07T16:23:19;0.80;;;0.60;;
38037;SDS011;23843;51.320;12.340;2022-12-07T16:25:45;2.57;;;1.43;;
38037;SDS011;23843;51.320;12.340;2022-12-07T16:28:10;2.07;;;1.33;;
38037;SDS011;23843;51.320;12.340;2022-12-07T16:30:36;1.13;;;0.83;;
38037;SDS011;23843;51.320;12.340;2022-12-07T16:33:01;1.83;;;1.00;;
38037;SDS011;23843;51.320;12.340;2022-12-07T16:35:27;1.13;;;0.80;;
38037;SDS011;23843;51.320;12.340;2022-12-07T16:37:53;0.70;;;0.50;;
38037;SDS011;23843;51.320;12.340;2022-12-07T16:40:19;0.83;;;0.50;;
38037;SDS011;23843;51.320;12.340;2022-12-07T16:42:44;0.60;;;0.50;;
38037;SDS011;23843;51.320;12.340;2022-12-07T16:45:10;0.63;;;0.40;;
38037;SDS011;23843;51.320;12.340;2022-12-07T16:47:36;0.43;;;0.40;;
38037;SDS011;23843;51.320;12.340;2022-12-07T16:50:02;1.10;;;0.50;;
38037;SDS011;23843;51.320;12.340;2022-12-07T16:52:28;0.43;;;0.43;;
38037;SDS011;23843;51.320;12.340;2022-12-07T16:54:55;0.60;;;0.47;;
38037;SDS011;23843;51.320;12.340;2022-12-07T16:57:20;0.50;;;0.50;;
38037;SDS011;23843;51.320;12.340;2022-12-07T16:59:46;0.90;;;0.60;;
38037;SDS011;23843;51.320;12.340;2022-12-07T17:02:11;0.50;;;0.43;;
38037;SDS011;23843;51.320;12.340;2022-12-07T17:04:37;0.50;;;0.50;;
38037;SDS011;23843;51.320;12.340;2022-12-07T17:07:02;0.60;;;0.50;;
38037;SDS011;23843;51.320;12.340;2022-12-07T17:09:28;0.60;;;0.57;;
38037;SDS011;23843;51.320;12.340;2022-12-07T17:11:55;0.60;;;0.60;;
38037;SDS011;23843;51.320;12.340;2022-12-07T17:14:20;1.00;;;0.80;;
38037;SDS011;23843;51.320;12.340;2022-12-07T17:16:46;0.60;;;0.60;;
38037;SDS011;23843;51.320;12.340;2022-12-07T17:19:12;1.20;;;0.80;;
38037;SDS011;23843;51.320;12.340;2022-12-07T17:21:39;1.10;;;0.90;;
38037;SDS011;23843;51.320;12.340;2022-12-07T17:24:06;1.20;;;0.87;;
38037;SDS011;23843;51.320;12.340;2022-12-07T17:26:34;1.50;;;1.00;;
38037;SDS011;23843;51.320;12.340;2022-12-07T17:29:01;1.20;;;0.80;;
38037;SDS011;23843;51.320;12.340;2022-12-07T17:31:28;1.53;;;0.87;;
38037;SDS011;23843;51.320;12.340;2022-12-07T17:33:53;1.00;;;0.73;;
38037;SDS011;23843;51.320;12.340;2022-12-07T17:36:20;1.30;;;0.70;;
38037;SDS011;23843;51.320;12.340;2022-12-07T17:38:46;1.70;;;0.90;;
38037;SDS011;23843;51.320;12.340;2022-12-07T17:41:12;1.40;;;1.10;;
38037;SDS011;23843;51.320;12.340;2022-12-07T17:43:39;1.20;;;1.00;;
38037;SDS011;23843;51.320;12.340;2022-12-07T17:46:07;1.10;;;0.83;;
38037;SDS011;23843;51.320;12.340;2022-12-07T17:48:32;0.80;;;0.60;;
38037;SDS011;23843;51.320;12.340;2022-12-07T17:50:58;1.47;;;0.73;;
38037;SDS011;23843;51.320;12.340;2022-12-07T17:53:24;1.10;;;1.00;;
38037;SDS011;23843;51.320;12.340;2022-12-07T17:55:51;0.97;;;0.77;;
38037;SDS011;23843;51.320;12.340;2022-12-07T17:58:18;1.60;;;0.90;;
38037;SDS011;23843;51.320;12.340;2022-12-07T18:00:43;1.67;;;0.90;;
38037;SDS011;23843;51.320;12.340;2022-12-07T18:03:10;1.07;;;0.70;;
38037;SDS011;23843;51.320;12.340;2022-12-07T18:05:36;1.20;;;0.80;;
38037;SDS011;23843;51.320;12.340;2022-12-07T18:08:02;0.77;;;0.63;;
38037;SDS011;23843;51.320;12.340;2022-12-07T18:10:28;0.87;;;0.67;;
38037;SDS011;23843;51.320;12.340;2022-12-07T18:12:53;1.03;;;0.77;;
38037;SDS011;23843;51.320;12.340;2022-12-07T18:15:19;0.80;;;0.60;;
38037;SDS011;23843;51.320;12.340;2022-12-07T18:17:44;0.80;;;0.70;;
38037;SDS011;23843;51.320;12.340;2022-12-07T18:20:12;0.90;;;0.60;;
38037;SDS011;23843;51.320;12.340;2022-12-07T18:22:37;1.10;;;0.87;;
38037;SDS011;23843;51.320;12.340;2022-12-07T18:25:03;1.10;;;0.63;;
38037;SDS011;23843;51.320;12.340;2022-12-07T18:27:28;1.73;;;1.03;;
38037;SDS011;23843;51.320;12.340;2022-12-07T18:29:54;0.67;;;0.60;;
38037;SDS011;23843;51.320;12.340;2022-12-07T18:32:19;1.13;;;0.77;;
38037;SDS011;23843;51.320;12.340;2022-12-07T18:34:45;0.90;;;0.80;;
38037;SDS011;23843;51.320;12.340;2022-12-07T18:37:11;1.70;;;0.97;;
38037;SDS011;23843;51.320;12.340;2022-12-07T18:39:37;1.70;;;1.20;;
38037;SDS011;23843;51.320;12.340;2022-12-07T18:42:03;1.67;;;1.20;;
38037;SDS011;23843;51.320;12.340;2022-12-07T18:44:28;1.30;;;0.90;;
38037;SDS011;23843;51.320;12.340;2022-12-07T18:46:54;1.53;;;1.00;;
38037;SDS011;23843;51.320;12.340;2022-12-07T18:49:19;1.23;;;1.00;;
38037;SDS011;23843;51.320;12.340;2022-12-07T18:51:44;1.40;;;0.90;;
38037;SDS011;23843;51.320;12.340;2022-12-07T18:54:11;1.70;;;0.90;;
38037;SDS011;23843;51.320;12.340;2022-12-07T18:56:37;0.60;;;0.60;;
38037;SDS011;23843;51.320;12.340;2022-12-07T18:59:03;1.00;;;0.63;;
38037;SDS011;23843;51.320;12.340;2022-12-07T19:01:29;0.90;;;0.77;;
38037;SDS011;23843;51.320;12.340;2022-12-07T19:03:55;1.23;;;0.83;;
38037;SDS011;23843;51.320;12.340;2022-12-07T19:06:21;1.40;;;0.90;;
38037;SDS011;23843;51.320;12.340;2022-12-07T19:08:46;2.27;;;1.33;;
38037;SDS011;23843;51.320;12.340;2022-12-07T19:11:17;1.93;;;1.10;;
38037;SDS011;23843;51.320;12.340;2022-12-07T19:13:42;0.87;;;0.80;;
38037;SDS011;23843;51.320;12.340;2022-12-07T19:16:08;2.10;;;1.10;;
38037;SDS011;23843;51.320;12.340;2022-12-07T19:18:34;1.53;;;1.10;;
38037;SDS011;23843;51.320;12.340;2022-12-07T19:21:01;1.30;;;1.00;;
38037;SDS011;23843;51.320;12.340;2022-12-07T19:23:27;1.40;;;0.93;;
38037;SDS011;23843;51.320;12.340;2022-12-07T19:25:53;1.90;;;0.97;;
38037;SDS011;23843;51.320;12.340;2022-12-07T19:28:20;1.40;;;1.00;;
38037;SDS011;23843;51.320;12.340;2022-12-07T19:30:45;1.67;;;1.10;;
38037;SDS011;23843;51.320;12.340;2022-12-07T19:33:11;1.60;;;1.33;;
38037;SDS011;23843;51.320;12.340;2022-12-07T19:35:36;1.63;;;1.30;;
38037;SDS011;23843;51.320;12.340;2022-12-07T19:38:02;1.77;;;1.20;;
38037;SDS011;23843;51.320;12.340;2022-12-07T19:40:27;1.83;;;1.20;;
38037;SDS011;23843;51.320;12.340;2022-12-07T19:42:52;1.67;;;1.20;;
38037;SDS011;23843;51.320;12.340;2022-12-07T19:45:19;2.17;;;1.00;;
38037;SDS011;23843;51.320;12.340;2022-12-07T19:47:45;1.60;;;1.03;;
38037;SDS011;23843;51.320;12.340;2022-12-07T19:50:10;3.57;;;1.97;;
38037;SDS011;23843;51.320;12.340;2022-12-07T19:52:36;1.50;;;1.10;;
38037;SDS011;23843;51.320;12.340;2022-12-07T19:55:01;1.50;;;0.90;;
38037;SDS011;23843;51.320;12.340;2022-12-07T19:57:26;1.50;;;0.93;;
38037;SDS011;23843;51.320;12.340;2022-12-07T19:59:52;1.57;;;1.00;;
38037;SDS011;23843;51.320;12.340;2022-12-07T20:02:19;1.40;;;1.00;;
38037;SDS011;23843;51.320;12.340;2022-12-07T20:04:44;1.47;;;0.90;;
38037;SDS011;23843;51.320;12.340;2022-12-07T20:07:10;1.33;;;1.10;;
38037;SDS011;23843;51.320;12.340;2022-12-07T20:09:35;1.23;;;1.00;;
38037;SDS011;23843;51.320;12.340;2022-12-07T20:12:01;1.00;;;0.90;;
38037;SDS011;23843;51.320;12.340;2022-12-07T20:14:26;1.13;;;0.80;;
38037;SDS011;23843;51.320;12.340;2022-12-07T20:16:52;1.43;;;1.13;;
38037;SDS011;23843;51.320;12.340;2022-12-07T20:19:19;1.67;;;1.20;;
38037;SDS011;23843;51.320;12.340;2022-12-07T20:21:44;2.27;;;1.50;;
38037;SDS011;23843;51.320;12.340;2022-12-07T20:24:11;2.17;;;1.30;;
38037;SDS011;23843;51.320;12.340;2022-12-07T20:26:42;1.43;;;1.07;;
38037;SDS011;23843;51.320;12.340;2022-12-07T20:29:08;0.80;;;0.70;;
38037;SDS011;23843;51.320;12.340;2022-12-07T20:31:35;1.33;;;0.73;;
38037;SDS011;23843;51.320;12.340;2022-12-07T20:34:01;1.03;;;0.70;;
38037;SDS011;23843;51.320;12.340;2022-12-07T20:36:28;1.77;;;1.00;;
38037;SDS011;23843;51.320;12.340;2022-12-07T20:38:54;0.90;;;0.80;;